Time;durP1;ratioP1;P1;durP2;ratioP2;P2;SDS_P1;SDS_P2;PMS_P1;PMS_P2;Temp;Humidity;BMP_temperature;BMP_pressure;BME280_temperature;BME280_humidity;BME280_pressure;Samples;Min_cycle;Max_cycle;Signal;HPM_P1;HPM_P2
2021/04/20 00:00:03;;;;;;;;;;;;;;;20.77;53.53;101288.13;2083633;28;4005;-72
2021/04/20 00:01:04;;;;;;;;;;;;;;;20.77;53.64;101288.13;2083847;28;3828;-72
2021/04/20 00:02:05;;;;;;;;;;;;;;;20.77;53.72;101288.13;2084212;28;4099;-73
2021/04/20 00:03:06;;;;;;;;;;;;;;;20.78;53.96;101286.13;2076775;28;3858;-72
2021/04/20 00:04:07;;;;;;;;;;;;;;;20.79;53.84;101290.66;2076074;28;3849;-72
2021/04/20 00:05:08;;;;;;;;;;;;;;;20.78;53.92;101289.78;2084048;28;3849;-72
2021/04/20 00:06:09;;;;;;;;;;;;;;;20.78;53.79;101292.63;2085361;28;4022;-72
2021/04/20 00:07:09;;;;;;;;;;;;;;;20.78;53.86;101286.94;2084310;28;4018;-73
2021/04/20 00:08:10;;;;;;;;;;;;;;;20.78;54.02;101284.09;2084586;28;3865;-73
2021/04/20 00:09:11;;;;;;;;;;;;;;;20.78;53.90;101289.78;2085509;28;4077;-72
2021/04/20 00:10:12;;;;;;;;;;;;;;;20.79;53.93;101284.97;2083147;28;3910;-72
2021/04/20 00:11:12;;;;;;;;;;;;;;;20.78;54.01;101292.63;2085100;28;3960;-72
2021/04/20 00:12:13;;;;;;;;;;;;;;;20.78;54.01;101286.13;2085326;28;3951;-73
2021/04/20 00:13:14;;;;;;;;;;;;;;;20.79;54.31;101287.81;2083813;28;4018;-72
2021/04/20 00:14:15;;;;;;;;;;;;;;;20.78;54.39;101286.94;2084710;28;4407;-72
2021/04/20 00:15:15;;;;;;;;;;;;;;;20.78;54.17;101284.09;2085078;28;4019;-72
2021/04/20 00:16:16;;;;;;;;;;;;;;;20.78;54.30;101278.41;2083948;28;3998;-73
2021/04/20 00:17:17;;;;;;;;;;;;;;;20.78;54.19;101278.41;2083694;28;4099;-73
2021/04/20 00:18:18;;;;;;;;;;;;;;;20.80;54.31;101272.41;2084239;28;3844;-73
2021/04/20 00:19:18;;;;;;;;;;;;;;;20.80;54.45;101275.25;2084924;28;4003;-73
2021/04/20 00:20:19;;;;;;;;;;;;;;;20.80;54.25;101276.06;2085194;28;3951;-73
2021/04/20 00:21:20;;;;;;;;;;;;;;;20.80;54.45;101273.22;2083992;28;3994;-73
2021/04/20 00:22:21;;;;;;;;;;;;;;;20.80;54.41;101276.06;2084377;28;4066;-73
2021/04/20 00:23:21;;;;;;;;;;;;;;;20.81;54.29;101276.91;2085314;28;4008;-73
2021/04/20 00:24:22;;;;;;;;;;;;;;;20.80;54.35;101276.06;2083959;28;3957;-73
2021/04/20 00:25:23;;;;;;;;;;;;;;;20.80;54.23;101276.06;2084170;28;3830;-73
2021/04/20 00:26:24;;;;;;;;;;;;;;;20.79;54.28;101274.41;2084651;28;3972;-73
2021/04/20 00:27:24;;;;;;;;;;;;;;;20.80;54.36;101276.06;2084710;28;3901;-73
2021/04/20 00:28:25;;;;;;;;;;;;;;;20.80;54.34;101276.06;2083792;28;4022;-73
2021/04/20 00:29:27;;;;;;;;;;;;;;;20.80;54.29;101267.53;2083696;28;3852;-74
2021/04/20 00:30:28;;;;;;;;;;;;;;;20.80;54.35;101275.25;2084427;28;3719;-73
2021/04/20 00:31:28;;;;;;;;;;;;;;;20.81;54.21;101282.59;2083533;28;3874;-74
2021/04/20 00:32:29;;;;;;;;;;;;;;;20.80;54.17;101280.94;2083419;28;3899;-74
2021/04/20 00:33:30;;;;;;;;;;;;;;;20.79;54.23;101274.41;2084360;28;4792;-75
2021/04/20 00:34:31;;;;;;;;;;;;;;;20.80;54.29;101275.25;2084699;28;3952;-74
2021/04/20 00:35:31;;;;;;;;;;;;;;;20.80;54.31;101275.25;2083965;28;3854;-74
2021/04/20 00:36:32;;;;;;;;;;;;;;;20.79;54.18;101273.59;2085077;28;3990;-74
2021/04/20 00:37:33;;;;;;;;;;;;;;;20.80;54.20;101281.75;2084160;28;3858;-74
2021/04/20 00:38:33;;;;;;;;;;;;;;;20.80;54.33;101278.91;2084816;28;3826;-74
2021/04/20 00:39:35;;;;;;;;;;;;;;;20.80;54.13;101287.44;2085365;28;3974;-75
2021/04/20 00:40:35;;;;;;;;;;;;;;;20.80;54.26;101280.94;2084777;28;5275;-74
2021/04/20 00:41:36;;;;;;;;;;;;;;;20.78;54.26;101269.88;2084219;28;4100;-74
2021/04/20 00:42:37;;;;;;;;;;;;;;;20.79;54.34;101277.25;2085144;28;3852;-74
2021/04/20 00:43:37;;;;;;;;;;;;;;;20.78;54.11;101275.56;2084196;28;3921;-74
2021/04/20 00:44:38;;;;;;;;;;;;;;;20.78;54.10;101277.59;2084808;28;3822;-74
2021/04/20 00:45:39;;;;;;;;;;;;;;;20.79;54.11;101279.28;2083525;28;3853;-73
2021/04/20 00:46:40;;;;;;;;;;;;;;;20.79;54.14;101284.97;2085608;28;4121;-74
2021/04/20 00:47:41;;;;;;;;;;;;;;;20.79;54.10;101284.97;2086914;28;3987;-74
2021/04/20 00:48:42;;;;;;;;;;;;;;;20.79;54.10;101277.25;2085492;28;3921;-74
2021/04/20 00:49:43;;;;;;;;;;;;;;;20.78;54.13;101284.09;2086003;28;3989;-74
2021/04/20 00:50:44;;;;;;;;;;;;;;;20.79;54.19;101277.25;2085737;28;3838;-74
2021/04/20 00:51:45;;;;;;;;;;;;;;;20.78;54.08;101278.41;2085213;28;3863;-73
2021/04/20 00:52:46;;;;;;;;;;;;;;;20.79;54.17;101279.28;2085614;28;3856;-74
2021/04/20 00:53:46;;;;;;;;;;;;;;;20.80;54.16;101278.09;2087035;28;3837;-74
2021/04/20 00:54:47;;;;;;;;;;;;;;;20.79;54.12;101277.25;2085042;28;3847;-74
2021/04/20 00:55:48;;;;;;;;;;;;;;;20.79;54.03;101279.28;2086384;28;4010;-74
2021/04/20 00:56:48;;;;;;;;;;;;;;;20.78;54.14;101277.59;2086127;28;4409;-74
2021/04/20 00:57:49;;;;;;;;;;;;;;;20.77;54.03;101271.06;2086330;28;4320;-73
2021/04/20 00:58:50;;;;;;;;;;;;;;;20.77;54.02;101271.06;2085750;28;4063;-73
2021/04/20 00:59:51;;;;;;;;;;;;;;;20.77;53.98;101271.06;2086473;28;3850;-73
2021/04/20 01:00:51;;;;;;;;;;;;;;;20.77;54.17;101273.09;2085950;28;3854;-73
2021/04/20 01:01:52;;;;;;;;;;;;;;;20.77;54.18;101268.22;2085961;28;4107;-73
2021/04/20 01:02:53;;;;;;;;;;;;;;;20.77;54.06;101273.09;2085972;28;3917;-74
2021/04/20 01:03:54;;;;;;;;;;;;;;;20.77;54.10;101276.75;2086096;28;3997;-73
2021/04/20 01:04:55;;;;;;;;;;;;;;;20.77;54.12;101270.25;2086265;28;3909;-74
2021/04/20 01:05:55;;;;;;;;;;;;;;;20.76;54.31;101269.41;2084852;28;3846;-73
2021/04/20 01:06:56;;;;;;;;;;;;;;;20.76;54.22;101272.25;2085004;28;3847;-73
2021/04/20 01:07:57;;;;;;;;;;;;;;;20.77;54.24;101268.22;2086854;28;3783;-74
2021/04/20 01:08:58;;;;;;;;;;;;;;;20.77;54.38;101270.25;2082385;28;4445;-73
2021/04/20 01:09:58;;;;;;;;;;;;;;;20.77;54.22;101270.25;2077901;28;3986;-73
2021/04/20 01:10:59;;;;;;;;;;;;;;;20.76;54.28;101269.41;2087280;28;3844;-73
2021/04/20 01:12:00;;;;;;;;;;;;;;;20.77;54.24;101268.22;2086788;28;5127;-74
2021/04/20 01:13:00;;;;;;;;;;;;;;;20.77;54.13;101267.41;2086069;28;3756;-73
2021/04/20 01:14:01;;;;;;;;;;;;;;;20.76;54.13;101263.72;2086188;28;4077;-73
2021/04/20 01:15:02;;;;;;;;;;;;;;;20.77;54.07;101270.25;2086154;28;3835;-73
2021/04/20 01:16:03;;;;;;;;;;;;;;;20.77;54.09;101267.41;2086042;28;4017;-74
2021/04/20 01:17:04;;;;;;;;;;;;;;;20.77;54.21;101271.06;2085395;28;3859;-73
2021/04/20 01:18:05;;;;;;;;;;;;;;;20.78;53.98;101263.38;2085710;28;4070;-73
2021/04/20 01:19:06;;;;;;;;;;;;;;;20.76;54.14;101263.72;2085163;28;4345;-73
2021/04/20 01:20:07;;;;;;;;;;;;;;;20.78;53.97;101260.53;2085778;28;4057;-73
2021/04/20 01:21:08;;;;;;;;;;;;;;;20.77;54.00;101265.38;2086235;28;3850;-73
2021/04/20 01:22:08;;;;;;;;;;;;;;;20.77;54.12;101254.00;2085373;28;4003;-73
2021/04/20 01:23:09;;;;;;;;;;;;;;;20.77;53.98;101256.84;2086439;28;5134;-73
2021/04/20 01:24:10;;;;;;;;;;;;;;;20.78;53.97;101255.66;2085484;28;6144;-73
2021/04/20 01:25:11;;;;;;;;;;;;;;;20.78;54.12;101257.69;2086044;28;3859;-73
2021/04/20 01:26:11;;;;;;;;;;;;;;;20.78;54.04;101260.53;2084702;28;3937;-73
2021/04/20 01:27:12;;;;;;;;;;;;;;;20.77;53.96;101259.69;2083409;28;3829;-73
2021/04/20 01:28:13;;;;;;;;;;;;;;;20.77;53.87;101258.88;2082963;28;4009;-73
2021/04/20 01:29:14;;;;;;;;;;;;;;;20.78;53.92;101263.38;2084190;28;4838;-73
2021/04/20 01:30:14;;;;;;;;;;;;;;;20.78;54.08;101261.34;2082273;28;4116;-73
2021/04/20 01:31:15;;;;;;;;;;;;;;;20.77;53.92;101265.38;2082399;28;5098;-73
2021/04/20 01:32:16;;;;;;;;;;;;;;;20.76;53.95;101266.56;2085883;28;3999;-73
2021/04/20 01:33:17;;;;;;;;;;;;;;;20.77;54.02;101262.53;2085786;28;4032;-72
2021/04/20 01:34:18;;;;;;;;;;;;;;;20.76;54.07;101258.03;2085257;28;3879;-73
2021/04/20 01:35:18;;;;;;;;;;;;;;;20.77;53.92;101256.03;2086163;28;3956;-73
2021/04/20 01:36:19;;;;;;;;;;;;;;;20.75;54.09;101262.03;2085924;28;3963;-73
2021/04/20 01:37:20;;;;;;;;;;;;;;;20.76;54.15;101262.88;2085950;28;4006;-73
2021/04/20 01:38:20;;;;;;;;;;;;;;;20.75;54.06;101250.66;2085727;28;3957;-73
2021/04/20 01:39:21;;;;;;;;;;;;;;;20.77;54.11;101256.03;2085054;28;3996;-73
2021/04/20 01:40:22;;;;;;;;;;;;;;;20.76;54.03;101254.34;2086006;28;4000;-72
2021/04/20 01:41:23;;;;;;;;;;;;;;;20.77;53.92;101259.69;2086144;28;3925;-73
2021/04/20 01:42:23;;;;;;;;;;;;;;;20.76;54.12;101255.19;2086170;28;3717;-73
2021/04/20 01:43:24;;;;;;;;;;;;;;;20.77;54.03;101262.53;2085731;28;6071;-72
2021/04/20 01:44:25;;;;;;;;;;;;;;;20.77;54.30;101253.19;2085383;28;3909;-73
2021/04/20 01:45:25;;;;;;;;;;;;;;;20.77;54.01;101256.03;2086504;28;3948;-72
2021/04/20 01:46:26;;;;;;;;;;;;;;;20.77;54.11;101254.00;2085945;28;3907;-73
2021/04/20 01:47:28;;;;;;;;;;;;;;;20.78;54.04;101260.53;2085911;28;3913;-73
2021/04/20 01:48:29;;;;;;;;;;;;;;;20.77;53.93;101253.19;2085611;28;3851;-72
2021/04/20 01:49:29;;;;;;;;;;;;;;;20.77;53.95;101247.50;2084290;28;3830;-73
2021/04/20 01:50:30;;;;;;;;;;;;;;;20.77;54.03;101251.16;2084906;28;3883;-72
2021/04/20 01:51:31;;;;;;;;;;;;;;;20.76;53.96;101260.88;2085100;28;4036;-73
2021/04/20 01:52:32;;;;;;;;;;;;;;;20.77;54.06;101250.34;2085932;28;3870;-73
2021/04/20 01:53:32;;;;;;;;;;;;;;;20.76;53.93;101254.34;2086199;28;3885;-73
2021/04/20 01:54:33;;;;;;;;;;;;;;;20.76;53.98;101255.19;2085548;28;3852;-72
2021/04/20 01:55:34;;;;;;;;;;;;;;;20.77;54.12;101256.03;2085653;28;3747;-73
2021/04/20 01:56:35;;;;;;;;;;;;;;;20.77;53.92;101256.84;2086073;28;4058;-72
2021/04/20 01:57:36;;;;;;;;;;;;;;;20.77;53.86;101244.66;2085215;28;3897;-72
2021/04/20 01:58:37;;;;;;;;;;;;;;;20.77;53.92;101250.34;2086040;28;3943;-72
2021/04/20 01:59:38;;;;;;;;;;;;;;;20.77;53.95;101254.00;2085393;28;3849;-72
2021/04/20 02:00:39;;;;;;;;;;;;;;;20.77;53.98;101248.31;2085118;28;5284;-72
2021/04/20 02:01:40;;;;;;;;;;;;;;;20.77;54.10;101251.16;2085231;28;3988;-73
2021/04/20 02:02:40;;;;;;;;;;;;;;;20.77;54.19;101253.19;2085647;28;3999;-72
2021/04/20 02:03:41;;;;;;;;;;;;;;;20.76;54.14;101252.34;2085775;28;4003;-72
2021/04/20 02:04:42;;;;;;;;;;;;;;;20.76;54.09;101249.50;2086050;28;3845;-72
2021/04/20 02:05:43;;;;;;;;;;;;;;;20.78;54.27;101249.16;2084640;28;4340;-72
2021/04/20 02:06:43;;;;;;;;;;;;;;;20.77;54.10;101254.00;2084806;28;3842;-72
2021/04/20 02:07:45;;;;;;;;;;;;;;;20.77;54.26;101248.31;2085958;28;4016;-72
2021/04/20 02:08:47;;;;;;;;;;;;;;;20.78;54.10;101255.66;2085928;28;3898;-72
2021/04/20 02:09:47;;;;;;;;;;;;;;;20.77;54.12;101254.00;2085360;28;3832;-73
2021/04/20 02:10:48;;;;;;;;;;;;;;;20.77;54.16;101259.69;2085239;28;3999;-72
2021/04/20 02:11:49;;;;;;;;;;;;;;;20.77;54.23;101259.69;2085984;28;3999;-72
2021/04/20 02:12:49;;;;;;;;;;;;;;;20.77;54.26;101259.69;2084595;28;5088;-72
2021/04/20 02:13:50;;;;;;;;;;;;;;;20.77;54.25;101256.03;2084932;28;4027;-72
2021/04/20 02:14:51;;;;;;;;;;;;;;;20.77;54.19;101256.84;2085084;28;4259;-74
2021/04/20 02:15:52;;;;;;;;;;;;;;;20.77;54.25;101259.69;2085491;28;4008;-72
2021/04/20 02:16:52;;;;;;;;;;;;;;;20.76;54.42;101255.19;2085891;28;3969;-72
2021/04/20 02:17:54;;;;;;;;;;;;;;;20.78;54.25;101254.84;2084943;28;4018;-72
2021/04/20 02:18:54;;;;;;;;;;;;;;;20.76;54.30;101249.50;2086222;28;3846;-72
2021/04/20 02:19:55;;;;;;;;;;;;;;;20.76;54.37;101257.19;2085066;28;3850;-72
2021/04/20 02:20:57;;;;;;;;;;;;;;;20.75;54.47;101252.69;2075789;28;4019;-72
2021/04/20 02:21:58;;;;;;;;;;;;;;;20.76;54.42;101257.19;2075739;28;4156;-72
2021/04/20 02:22:58;;;;;;;;;;;;;;;20.77;54.51;101256.03;2084797;28;4103;-72
2021/04/20 02:23:59;;;;;;;;;;;;;;;20.77;54.51;101251.16;2085540;28;4059;-72
2021/04/20 02:25:00;;;;;;;;;;;;;;;20.76;54.58;101252.34;2085134;28;5147;-73
2021/04/20 02:26:00;;;;;;;;;;;;;;;20.77;54.51;101258.88;2085256;28;4027;-73
2021/04/20 02:27:01;;;;;;;;;;;;;;;20.76;54.54;101248.66;2085570;28;4014;-74
2021/04/20 02:28:02;;;;;;;;;;;;;;;20.75;54.43;101244.97;2085748;28;4014;-74
2021/04/20 02:29:03;;;;;;;;;;;;;;;20.76;54.55;101249.50;2085164;28;3946;-74
2021/04/20 02:30:03;;;;;;;;;;;;;;;20.76;54.66;101254.34;2085556;28;3859;-74
2021/04/20 02:31:04;;;;;;;;;;;;;;;20.77;54.52;101253.19;2084658;28;4168;-74
2021/04/20 02:32:05;;;;;;;;;;;;;;;20.76;54.63;101258.03;2085591;28;3814;-74
2021/04/20 02:33:06;;;;;;;;;;;;;;;20.77;54.76;101253.19;2084703;28;3840;-74
2021/04/20 02:34:07;;;;;;;;;;;;;;;20.77;54.62;101256.84;2085128;28;4001;-74
2021/04/20 02:35:08;;;;;;;;;;;;;;;20.77;54.48;101253.19;2085502;28;5030;-74
2021/04/20 02:36:08;;;;;;;;;;;;;;;20.76;54.72;101248.66;2085565;28;3759;-74
2021/04/20 02:37:09;;;;;;;;;;;;;;;20.77;54.67;101250.34;2084799;28;3880;-74
2021/04/20 02:38:11;;;;;;;;;;;;;;;20.76;54.61;101248.66;2085614;28;3822;-74
2021/04/20 02:39:11;;;;;;;;;;;;;;;20.76;54.68;101249.50;2085896;28;5023;-74
2021/04/20 02:40:12;;;;;;;;;;;;;;;20.75;54.64;101250.66;2084890;28;3894;-74
2021/04/20 02:41:13;;;;;;;;;;;;;;;20.75;54.65;101256.34;2085653;28;3909;-74
2021/04/20 02:42:14;;;;;;;;;;;;;;;20.76;54.60;101245.81;2085525;28;3991;-74
2021/04/20 02:43:14;;;;;;;;;;;;;;;20.75;54.67;101252.69;2085587;28;3863;-74
2021/04/20 02:44:15;;;;;;;;;;;;;;;20.75;54.56;101247.81;2084838;28;3905;-73
2021/04/20 02:45:16;;;;;;;;;;;;;;;20.75;54.71;101255.53;2085025;28;4118;-73
2021/04/20 02:46:17;;;;;;;;;;;;;;;20.75;54.58;101258.38;2085542;28;3838;-74
2021/04/20 02:47:17;;;;;;;;;;;;;;;20.75;54.83;101255.53;2085414;28;3901;-74
2021/04/20 02:48:18;;;;;;;;;;;;;;;20.76;54.69;101254.34;2085453;28;3942;-74
2021/04/20 02:49:19;;;;;;;;;;;;;;;20.75;54.72;101249.84;2085167;28;5346;-74
2021/04/20 02:50:28;;;;;;;;;;;;;;;20.74;54.70;101249.00;2084761;28;3772;-73
2021/04/20 02:51:29;;;;;;;;;;;;;;;20.75;54.70;101249.84;2083511;28;3933;-74
2021/04/20 02:52:30;;;;;;;;;;;;;;;20.75;54.57;101250.66;2085445;28;3828;-74
2021/04/20 02:53:34;;;;;;;;;;;;;;;20.74;54.71;101237.63;2083657;28;4953;-74
2021/04/20 02:54:35;;;;;;;;;;;;;;;20.75;54.70;101236.44;2085718;28;4108;-74
2021/04/20 02:55:35;;;;;;;;;;;;;;;20.74;54.49;101237.63;2085501;28;3852;-73
2021/04/20 02:56:36;;;;;;;;;;;;;;;20.75;54.64;101241.31;2085554;28;3997;-74
2021/04/20 02:57:37;;;;;;;;;;;;;;;20.75;54.65;101235.63;2085032;28;3910;-74
2021/04/20 02:58:37;;;;;;;;;;;;;;;20.75;54.52;101235.63;2085039;28;3844;-73
2021/04/20 02:59:39;;;;;;;;;;;;;;;20.75;54.45;101227.91;2085719;28;3806;-73
2021/04/20 03:00:39;;;;;;;;;;;;;;;20.75;54.38;101239.28;2084481;28;3839;-74
2021/04/20 03:01:40;;;;;;;;;;;;;;;20.73;54.32;101235.97;2075827;28;4028;-74
2021/04/20 03:02:41;;;;;;;;;;;;;;;20.74;54.47;101234.78;2075938;28;4000;-74
2021/04/20 03:03:41;;;;;;;;;;;;;;;20.74;54.44;101239.66;2085424;28;3845;-73
2021/04/20 03:04:42;;;;;;;;;;;;;;;20.73;54.28;101233.13;2085480;28;3961;-74
2021/04/20 03:05:43;;;;;;;;;;;;;;;20.74;54.41;101237.63;2084481;28;4176;-74
2021/04/20 03:06:44;;;;;;;;;;;;;;;20.74;54.42;101240.47;2084220;28;3991;-74
2021/04/20 03:07:44;;;;;;;;;;;;;;;20.75;54.52;101244.16;2085515;28;3964;-73
2021/04/20 03:08:45;;;;;;;;;;;;;;;20.73;54.28;101235.97;2085125;28;3987;-74
2021/04/20 03:09:47;;;;;;;;;;;;;;;20.74;54.37;101239.66;2084442;28;3986;-74
2021/04/20 03:10:47;;;;;;;;;;;;;;;20.74;54.38;101237.63;2084937;28;3997;-72
2021/04/20 03:11:48;;;;;;;;;;;;;;;20.74;54.33;101242.50;2085719;28;3896;-72
2021/04/20 03:12:49;;;;;;;;;;;;;;;20.74;54.36;101237.63;2084393;28;4077;-74
2021/04/20 03:13:49;;;;;;;;;;;;;;;20.74;54.48;101242.50;2084673;28;4013;-74
2021/04/20 03:15:03;;;;;;;;;;;;;;;20.74;54.58;101242.50;2084752;28;4008;-74
2021/04/20 03:16:04;;;;;;;;;;;;;;;20.74;54.53;101243.31;2085176;28;3891;-74
2021/04/20 03:17:05;;;;;;;;;;;;;;;20.74;54.48;101233.97;2085358;28;3989;-74
2021/04/20 03:18:06;;;;;;;;;;;;;;;20.74;54.43;101237.63;2085039;28;3860;-75
2021/04/20 03:19:07;;;;;;;;;;;;;;;20.74;54.54;101234.78;2084762;28;3830;-75
2021/04/20 03:20:07;;;;;;;;;;;;;;;20.74;54.60;101222.59;2083034;28;3884;-75
2021/04/20 03:21:08;;;;;;;;;;;;;;;20.74;54.62;101231.13;2084533;28;3993;-76
2021/04/20 03:22:09;;;;;;;;;;;;;;;20.73;54.38;101227.44;2084390;28;3875;-75
2021/04/20 03:23:10;;;;;;;;;;;;;;;20.73;54.41;101233.13;2083459;28;3930;-75
2021/04/20 03:24:10;;;;;;;;;;;;;;;20.73;54.31;101235.13;2085018;28;3853;-75
2021/04/20 03:25:11;;;;;;;;;;;;;;;20.73;54.46;101221.75;2084307;28;4071;-75
2021/04/20 03:26:12;;;;;;;;;;;;;;;20.73;54.45;101227.44;2084250;28;4069;-74
2021/04/20 03:27:13;;;;;;;;;;;;;;;20.73;54.53;101232.28;2085457;28;3995;-75
2021/04/20 03:28:13;;;;;;;;;;;;;;;20.74;54.22;101219.75;2085386;28;4055;-75
2021/04/20 03:29:14;;;;;;;;;;;;;;;20.74;54.56;101219.75;2084289;28;3820;-75
2021/04/20 03:30:15;;;;;;;;;;;;;;;20.74;54.46;101219.75;2083777;28;3916;-75
2021/04/20 03:31:16;;;;;;;;;;;;;;;20.75;54.33;101233.59;2084293;28;3930;-75
2021/04/20 03:32:16;;;;;;;;;;;;;;;20.74;54.53;101212.03;2085530;28;3795;-73
2021/04/20 03:33:17;;;;;;;;;;;;;;;20.74;54.50;101214.88;2085581;28;4267;-72
2021/04/20 03:34:18;;;;;;;;;;;;;;;20.75;54.42;101213.69;2084378;28;4022;-72
2021/04/20 03:35:19;;;;;;;;;;;;;;;20.74;54.52;101220.56;2084490;28;3798;-72
2021/04/20 03:36:19;;;;;;;;;;;;;;;20.73;54.54;101210.38;2085336;28;3795;-74
2021/04/20 03:37:20;;;;;;;;;;;;;;;20.73;54.38;101218.91;2084415;28;3922;-73
2021/04/20 03:38:21;;;;;;;;;;;;;;;20.73;54.39;101207.53;2085535;28;4240;-73
2021/04/20 03:39:22;;;;;;;;;;;;;;;20.74;54.47;101220.56;2083696;28;3782;-73
2021/04/20 03:40:23;;;;;;;;;;;;;;;20.74;54.39;101220.56;2085558;28;4001;-74
2021/04/20 03:41:23;;;;;;;;;;;;;;;20.74;54.43;101214.88;2084649;28;3960;-73
2021/04/20 03:42:24;;;;;;;;;;;;;;;20.75;54.46;101222.22;2085085;28;4035;-74
2021/04/20 03:43:25;;;;;;;;;;;;;;;20.75;54.61;101218.56;2084972;28;4010;-73
2021/04/20 03:44:26;;;;;;;;;;;;;;;20.75;54.46;101227.09;2084063;28;5390;-73
2021/04/20 03:45:26;;;;;;;;;;;;;;;20.75;54.41;101227.91;2085131;28;3807;-74
2021/04/20 03:46:27;;;;;;;;;;;;;;;20.75;54.57;101225.06;2084770;28;3849;-74
2021/04/20 03:47:28;;;;;;;;;;;;;;;20.75;54.52;101227.09;2084430;28;4270;-72
2021/04/20 03:48:29;;;;;;;;;;;;;;;20.75;54.45;101216.53;2084903;28;3865;-72
2021/04/20 03:49:30;;;;;;;;;;;;;;;20.75;54.40;101219.38;2084298;28;4016;-73
2021/04/20 03:50:31;;;;;;;;;;;;;;;20.76;54.51;101221.06;2083754;28;5086;-72
2021/04/20 03:51:32;;;;;;;;;;;;;;;20.76;54.53;101211.69;2084102;28;4001;-72
2021/04/20 03:52:33;;;;;;;;;;;;;;;20.75;54.48;101222.22;2084022;28;3854;-72
2021/04/20 03:53:34;;;;;;;;;;;;;;;20.76;54.39;101221.06;2084949;28;3866;-71
2021/04/20 03:54:34;;;;;;;;;;;;;;;20.77;54.41;101219.06;2084874;28;4023;-72
2021/04/20 03:55:35;;;;;;;;;;;;;;;20.76;54.56;101223.06;2084641;28;4005;-72
2021/04/20 03:56:36;;;;;;;;;;;;;;;20.75;54.44;101221.41;2084352;28;4013;-71
2021/04/20 03:57:37;;;;;;;;;;;;;;;20.75;54.46;101219.38;2085119;28;3992;-71
2021/04/20 03:58:37;;;;;;;;;;;;;;;20.76;54.53;101223.06;2084236;28;3948;-72
2021/04/20 03:59:39;;;;;;;;;;;;;;;20.77;54.57;101224.75;2084878;28;3844;-72
2021/04/20 04:00:39;;;;;;;;;;;;;;;20.76;54.41;101223.06;2084854;28;4020;-73
2021/04/20 04:01:40;;;;;;;;;;;;;;;20.75;54.51;101225.06;2085043;28;4114;-72
2021/04/20 04:02:41;;;;;;;;;;;;;;;20.75;54.49;101219.38;2085327;28;4170;-72
2021/04/20 04:03:42;;;;;;;;;;;;;;;20.76;54.51;101215.38;2083705;28;3859;-72
2021/04/20 04:04:43;;;;;;;;;;;;;;;20.75;54.61;101222.22;2084633;28;3994;-73
2021/04/20 04:05:43;;;;;;;;;;;;;;;20.75;54.43;101216.53;2085250;28;3957;-72
2021/04/20 04:06:44;;;;;;;;;;;;;;;20.75;54.49;101222.22;2084310;28;3906;-72
2021/04/20 04:07:45;;;;;;;;;;;;;;;20.75;54.51;101215.72;2085029;28;4044;-72
2021/04/20 04:08:46;;;;;;;;;;;;;;;20.75;54.44;101219.38;2075806;28;4067;-72
2021/04/20 04:09:46;;;;;;;;;;;;;;;20.75;54.48;101221.41;2076241;28;4061;-73
2021/04/20 04:10:47;;;;;;;;;;;;;;;20.75;54.39;101218.56;2084747;28;4205;-73
2021/04/20 04:11:48;;;;;;;;;;;;;;;20.75;54.50;101222.22;2084533;28;3922;-73
2021/04/20 04:12:48;;;;;;;;;;;;;;;20.76;54.39;101223.06;2084944;28;3850;-73
2021/04/20 04:13:49;;;;;;;;;;;;;;;20.73;54.33;101218.91;2084518;28;4298;-73
2021/04/20 04:14:50;;;;;;;;;;;;;;;20.75;54.52;101232.78;2084650;28;3828;-73
2021/04/20 04:15:51;;;;;;;;;;;;;;;20.75;54.35;101222.22;2084423;28;3994;-73
2021/04/20 04:16:52;;;;;;;;;;;;;;;20.76;54.41;101220.22;2084215;28;4005;-72
2021/04/20 04:17:53;;;;;;;;;;;;;;;20.75;54.43;101221.41;2084325;28;4004;-73
2021/04/20 04:18:54;;;;;;;;;;;;;;;20.75;54.41;101222.22;2083707;28;3760;-73
2021/04/20 04:19:55;;;;;;;;;;;;;;;20.74;54.28;101223.41;2083927;28;3836;-71
2021/04/20 04:20:55;;;;;;;;;;;;;;;20.74;54.41;101226.25;2084139;28;4233;-71
2021/04/20 04:21:56;;;;;;;;;;;;;;;20.74;54.42;101223.41;2086016;28;4005;-71
2021/04/20 04:22:57;;;;;;;;;;;;;;;20.74;54.29;101234.78;2077441;28;4456;-72
2021/04/20 04:23:58;;;;;;;;;;;;;;;20.74;54.26;101226.25;2077569;28;3878;-71
2021/04/20 04:24:58;;;;;;;;;;;;;;;20.73;54.41;101229.44;2085848;28;3748;-71
2021/04/20 04:25:59;;;;;;;;;;;;;;;20.74;54.47;101236.81;2085515;28;4044;-71
2021/04/20 04:27:00;;;;;;;;;;;;;;;20.72;54.35;101236.31;2086348;28;4036;-72
2021/04/20 04:28:01;;;;;;;;;;;;;;;20.74;54.53;101236.81;2085494;28;3871;-72
2021/04/20 04:29:02;;;;;;;;;;;;;;;20.73;54.41;101237.97;2085917;28;4073;-72
2021/04/20 04:30:03;;;;;;;;;;;;;;;20.73;54.51;101235.97;2086629;28;3805;-71
2021/04/20 04:31:04;;;;;;;;;;;;;;;20.73;54.41;101241.66;2085294;28;3844;-72
2021/04/20 04:32:05;;;;;;;;;;;;;;;20.72;54.43;101239.97;2083471;28;4162;-72
2021/04/20 04:33:05;;;;;;;;;;;;;;;20.73;54.31;101246.50;2081176;28;4015;-71
2021/04/20 04:34:06;;;;;;;;;;;;;;;20.73;54.50;101240.81;2086736;28;3886;-72
2021/04/20 04:35:07;;;;;;;;;;;;;;;20.73;54.38;101235.97;2086651;28;3813;-71
2021/04/20 04:36:08;;;;;;;;;;;;;;;20.73;54.48;101247.34;2086277;28;4059;-71
2021/04/20 04:37:08;;;;;;;;;;;;;;;20.72;54.59;101242.81;2085951;28;3991;-71
2021/04/20 04:38:09;;;;;;;;;;;;;;;20.73;54.56;101250.19;2077561;28;3758;-71
2021/04/20 04:39:11;;;;;;;;;;;;;;;20.74;54.55;101249.00;2076976;28;3940;-71
2021/04/20 04:40:12;;;;;;;;;;;;;;;20.74;54.47;101237.63;2086173;28;5140;-72
2021/04/20 04:41:13;;;;;;;;;;;;;;;20.73;54.37;101250.19;2085675;28;3944;-72
2021/04/20 04:42:14;;;;;;;;;;;;;;;20.73;54.44;101244.50;2085578;28;3901;-71
2021/04/20 04:43:15;;;;;;;;;;;;;;;20.73;54.43;101246.50;2086656;28;3831;-71
2021/04/20 04:44:15;;;;;;;;;;;;;;;20.74;54.65;101251.03;2084908;28;4097;-73
2021/04/20 04:45:16;;;;;;;;;;;;;;;20.73;54.53;101244.50;2086234;28;4066;-74
2021/04/20 04:46:17;;;;;;;;;;;;;;;20.74;54.53;101251.03;2085121;28;3975;-74
2021/04/20 04:47:18;;;;;;;;;;;;;;;20.73;54.66;101247.34;2086090;28;3789;-73
2021/04/20 04:48:19;;;;;;;;;;;;;;;20.73;54.66;101244.50;2077495;28;3871;-73
2021/04/20 04:49:19;;;;;;;;;;;;;;;20.74;54.67;101246.16;2077496;28;4059;-72
2021/04/20 04:50:20;;;;;;;;;;;;;;;20.74;54.83;101243.31;2085863;28;3782;-70
2021/04/20 04:51:21;;;;;;;;;;;;;;;20.74;54.69;101245.34;2085361;28;4144;-71
2021/04/20 04:52:21;;;;;;;;;;;;;;;20.73;54.63;101244.50;2086227;28;3999;-73
2021/04/20 04:53:22;;;;;;;;;;;;;;;20.74;54.69;101245.34;2086555;28;3996;-71
2021/04/20 04:54:23;;;;;;;;;;;;;;;20.74;54.62;101240.47;2085701;28;3821;-71
2021/04/20 04:55:24;;;;;;;;;;;;;;;20.74;54.58;101248.19;2086217;28;3988;-72
2021/04/20 04:56:24;;;;;;;;;;;;;;;20.74;54.65;101245.34;2085354;28;4046;-72
2021/04/20 04:57:25;;;;;;;;;;;;;;;20.73;54.58;101244.50;2086430;28;3940;-71
2021/04/20 04:58:26;;;;;;;;;;;;;;;20.73;54.40;101253.03;2085897;28;4021;-70
2021/04/20 04:59:27;;;;;;;;;;;;;;;20.73;54.51;101252.19;2085502;28;3980;-70
2021/04/20 05:00:28;;;;;;;;;;;;;;;20.73;54.46;101243.66;2084901;28;5211;-72
2021/04/20 05:01:28;;;;;;;;;;;;;;;20.74;54.47;101251.03;2086012;28;4010;-69
2021/04/20 05:02:29;;;;;;;;;;;;;;;20.73;54.43;101255.88;2086207;28;3918;-71
2021/04/20 05:03:30;;;;;;;;;;;;;;;20.73;54.38;101249.34;2085843;28;3753;-71
2021/04/20 05:04:31;;;;;;;;;;;;;;;20.73;54.42;101258.72;2086053;28;3815;-72
2021/04/20 05:05:32;;;;;;;;;;;;;;;20.73;54.49;101253.03;2085759;28;4074;-71
2021/04/20 05:06:33;;;;;;;;;;;;;;;20.73;54.41;101257.88;2085649;28;3974;-70
2021/04/20 05:07:33;;;;;;;;;;;;;;;20.73;54.47;101255.03;2082146;28;3840;-71
2021/04/20 05:08:34;;;;;;;;;;;;;;;20.73;54.40;101258.72;2081001;28;3744;-72
2021/04/20 05:09:36;;;;;;;;;;;;;;;20.73;54.26;101258.72;2084615;28;3948;-72
2021/04/20 05:10:37;;;;;;;;;;;;;;;20.74;54.44;101254.69;2084096;28;5147;-70
2021/04/20 05:11:37;;;;;;;;;;;;;;;20.74;54.27;101254.69;2085708;28;4012;-71
2021/04/20 05:12:38;;;;;;;;;;;;;;;20.74;54.45;101253.88;2086044;28;4042;-72
2021/04/20 05:13:39;;;;;;;;;;;;;;;20.74;54.37;101260.38;2085893;28;4080;-73
2021/04/20 05:14:40;;;;;;;;;;;;;;;20.74;54.42;101254.69;2086687;28;3978;-73
2021/04/20 05:15:40;;;;;;;;;;;;;;;20.75;54.34;101249.84;2084915;28;5187;-72
2021/04/20 05:16:41;;;;;;;;;;;;;;;20.75;54.46;101256.34;2084439;28;4046;-71